createdAt,value
2018-04-18T00:00:00.395Z,99.90
2018-04-18T00:02:27.926Z,99.90
2018-04-18T00:04:56.262Z,99.90
2018-04-18T00:07:23.819Z,99.90
2018-04-18T00:09:51.398Z,99.90
2018-04-18T00:12:18.904Z,99.90
2018-04-18T00:14:46.545Z,99.90
2018-04-18T00:17:14.847Z,99.90
2018-04-18T00:19:43.114Z,99.90
2018-04-18T00:22:10.684Z,99.90
2018-04-18T00:24:38.236Z,99.90
2018-04-18T00:27:05.894Z,99.90
2018-04-18T00:29:33.602Z,99.90
2018-04-18T00:32:01.132Z,99.90
2018-04-18T00:34:28.714Z,99.90
2018-04-18T00:36:56.221Z,99.90
2018-04-18T00:39:23.749Z,99.90
2018-04-18T00:41:51.314Z,99.90
2018-04-18T00:44:18.855Z,99.90
2018-04-18T00:46:46.457Z,99.90
2018-04-18T00:49:13.998Z,99.90
2018-04-18T00:51:41.528Z,99.90
2018-04-18T00:54:09.077Z,99.90
2018-04-18T00:56:36.160Z,99.90
2018-04-18T00:59:03.225Z,99.90
2018-04-18T01:01:30.301Z,99.90
2018-04-18T01:03:57.406Z,99.90
2018-04-18T01:06:24.484Z,99.90
2018-04-18T01:08:51.593Z,99.90
2018-04-18T01:11:18.677Z,99.90
2018-04-18T01:13:45.889Z,99.90
2018-04-18T01:16:13.021Z,99.90
2018-04-18T01:18:40.284Z,99.90
2018-04-18T01:21:07.365Z,99.90
2018-04-18T01:23:34.432Z,99.90
2018-04-18T01:26:01.561Z,99.90
2018-04-18T01:28:28.714Z,99.90
2018-04-18T01:30:55.883Z,99.90
2018-04-18T01:33:23.127Z,99.90
2018-04-18T01:35:50.378Z,99.90
2018-04-18T01:38:26.583Z,99.90
2018-04-18T01:40:57.908Z,99.90
2018-04-18T01:43:30.406Z,99.90
2018-04-18T01:45:57.486Z,99.90
2018-04-18T01:48:24.555Z,99.90
2018-04-18T01:50:51.618Z,99.90
2018-04-18T01:53:19.453Z,99.90
2018-04-18T01:55:46.563Z,99.90
2018-04-18T01:58:14.416Z,99.90
2018-04-18T02:00:41.612Z,99.90
2018-04-18T02:03:08.689Z,99.90
2018-04-18T02:05:35.758Z,99.90
2018-04-18T02:08:02.833Z,99.90
2018-04-18T02:10:30.699Z,99.90
2018-04-18T02:12:58.835Z,99.90
2018-04-18T02:15:26.039Z,99.90
2018-04-18T02:17:53.263Z,99.90
2018-04-18T02:20:20.342Z,99.90
2018-04-18T02:22:48.541Z,99.90
2018-04-18T02:25:15.702Z,99.90
2018-04-18T02:27:42.821Z,99.90
2018-04-18T02:30:09.901Z,99.90
2018-04-18T02:32:36.991Z,99.90
2018-04-18T02:35:04.066Z,99.90
2018-04-18T02:37:31.144Z,99.90
2018-04-18T02:39:58.225Z,99.90
2018-04-18T02:42:26.221Z,99.90
2018-04-18T02:44:54.068Z,99.90
2018-04-18T02:47:21.130Z,99.90
2018-04-18T02:49:48.976Z,99.90
2018-04-18T02:52:16.056Z,99.90
2018-04-18T02:54:44.061Z,99.90
2018-04-18T02:57:11.147Z,99.90
2018-04-18T02:59:38.201Z,99.90
2018-04-18T03:02:05.301Z,99.90
2018-04-18T03:04:32.383Z,99.90
2018-04-18T03:06:59.465Z,99.90
2018-04-18T03:09:26.693Z,99.90
2018-04-18T03:11:53.855Z,99.90
2018-04-18T03:14:23.322Z,99.90
2018-04-18T03:17:03.245Z,99.90
2018-04-18T03:19:30.393Z,99.90
2018-04-18T03:21:57.484Z,99.90
2018-04-18T03:24:24.607Z,99.90
2018-04-18T03:26:51.703Z,99.90
2018-04-18T03:29:18.781Z,99.90
2018-04-18T03:31:46.703Z,99.90
2018-04-18T03:34:13.780Z,99.90
2018-04-18T03:36:40.847Z,99.90
2018-04-18T03:39:08.699Z,99.90
2018-04-18T03:41:35.773Z,99.90
2018-04-18T03:44:02.829Z,99.90
2018-04-18T03:46:29.891Z,99.90
2018-04-18T03:48:57.025Z,99.90
2018-04-18T03:51:24.114Z,99.90
2018-04-18T03:53:51.165Z,99.90
2018-04-18T03:56:18.230Z,99.90
2018-04-18T03:58:45.302Z,99.90
2018-04-18T04:01:12.421Z,99.90
2018-04-18T04:03:39.522Z,99.90
2018-04-18T04:06:06.582Z,99.90
2018-04-18T04:08:33.662Z,99.90
2018-04-18T04:11:00.754Z,99.90
2018-04-18T04:13:27.877Z,99.90
2018-04-18T04:15:55.000Z,99.90
2018-04-18T04:18:28.002Z,99.90
2018-04-18T04:21:00.865Z,99.90
2018-04-18T04:23:34.483Z,99.90
2018-04-18T04:26:01.545Z,99.90
2018-04-18T04:28:28.624Z,99.90
2018-04-18T04:30:55.692Z,99.90
2018-04-18T04:33:22.758Z,99.90
2018-04-18T04:35:49.872Z,99.90
2018-04-18T04:38:16.955Z,99.90
2018-04-18T04:40:44.034Z,99.90
2018-04-18T04:43:11.141Z,99.90
2018-04-18T04:45:38.211Z,99.90
2018-04-18T04:48:05.321Z,99.90
2018-04-18T04:50:32.421Z,99.90
2018-04-18T04:52:59.512Z,99.90
2018-04-18T04:55:27.354Z,99.90
2018-04-18T04:57:54.424Z,99.90
2018-04-18T05:00:22.286Z,99.90
2018-04-18T05:02:50.126Z,99.90
2018-04-18T05:05:17.248Z,99.90
2018-04-18T05:07:44.396Z,99.90
2018-04-18T05:10:11.479Z,99.90
2018-04-18T05:12:38.645Z,99.90
2018-04-18T05:15:05.822Z,99.90
2018-04-18T05:17:33.541Z,99.90
2018-04-18T05:20:00.693Z,99.90
2018-04-18T05:22:27.799Z,99.90
2018-04-18T05:24:54.863Z,99.90
2018-04-18T05:27:21.949Z,99.90
2018-04-18T05:29:49.664Z,99.90
2018-04-18T05:32:16.787Z,99.90
2018-04-18T05:34:44.794Z,99.90
2018-04-18T05:37:11.971Z,99.90
2018-04-18T05:39:39.285Z,99.90
2018-04-18T05:42:06.365Z,99.90
2018-04-18T05:44:33.478Z,99.90
2018-04-18T05:47:00.571Z,99.90
2018-04-18T05:49:27.901Z,99.90
2018-04-18T05:51:55.931Z,99.90
2018-04-18T05:54:23.079Z,99.90
2018-04-18T05:59:22.489Z,99.90
2018-04-18T06:01:50.503Z,99.90
2018-04-18T06:04:17.882Z,99.90
2018-04-18T06:06:45.220Z,99.90
2018-04-18T06:09:12.327Z,99.90
2018-04-18T06:11:40.255Z,99.90
2018-04-18T06:14:07.329Z,99.90
2018-04-18T06:16:34.429Z,99.90
2018-04-18T06:19:01.501Z,99.90
2018-04-18T06:21:28.570Z,99.90
2018-04-18T06:23:55.659Z,99.90
2018-04-18T06:26:23.499Z,99.90
2018-04-18T06:28:51.364Z,99.90
2018-04-18T06:31:18.451Z,99.90
2018-04-18T06:33:45.563Z,99.90
2018-04-18T06:36:12.612Z,99.90
2018-04-18T06:38:39.676Z,99.90
2018-04-18T06:41:06.866Z,99.90
2018-04-18T06:43:33.953Z,99.90
2018-04-18T06:46:01.153Z,99.90
2018-04-18T06:48:28.262Z,99.90
2018-04-18T06:50:56.301Z,99.90
2018-04-18T06:53:23.417Z,99.90
2018-04-18T06:55:50.495Z,99.90
2018-04-18T06:58:17.731Z,99.90
2018-04-18T07:00:44.827Z,99.90
2018-04-18T07:03:12.190Z,99.90
2018-04-18T07:05:39.312Z,99.90
2018-04-18T07:08:06.379Z,99.90
2018-04-18T07:10:33.488Z,99.90
2018-04-18T07:13:00.591Z,99.90
2018-04-18T07:15:27.684Z,99.90
2018-04-18T07:17:54.781Z,99.90
2018-04-18T07:20:21.962Z,99.90
2018-04-18T07:22:49.058Z,99.90
2018-04-18T07:25:16.142Z,99.90
2018-04-18T07:27:43.318Z,99.90
2018-04-18T07:30:10.402Z,99.90
2018-04-18T07:32:37.465Z,99.90
2018-04-18T07:35:04.573Z,99.90
2018-04-18T07:37:31.676Z,99.90
2018-04-18T07:39:58.871Z,99.90
2018-04-18T07:42:25.963Z,99.90
2018-04-18T07:44:53.062Z,99.90
2018-04-18T07:47:20.891Z,99.90
2018-04-18T07:49:47.963Z,99.90
2018-04-18T07:52:15.830Z,99.90
2018-04-18T07:54:42.900Z,99.90
2018-04-18T07:57:09.993Z,99.90
2018-04-18T07:59:37.265Z,99.90
2018-04-18T08:02:04.350Z,99.90
2018-04-18T08:04:32.239Z,99.90
2018-04-18T08:06:59.317Z,99.90
2018-04-18T08:09:26.419Z,99.90
2018-04-18T08:11:53.666Z,99.90
2018-04-18T08:14:20.729Z,99.90
2018-04-18T08:16:47.805Z,99.90
2018-04-18T08:19:14.909Z,99.90
2018-04-18T08:21:42.810Z,99.90
2018-04-18T08:24:10.626Z,99.90
2018-04-18T08:26:38.469Z,99.90
2018-04-18T08:29:05.543Z,99.90
2018-04-18T08:31:32.618Z,99.90
2018-04-18T08:33:59.726Z,99.90
2018-04-18T08:36:26.912Z,99.90
2018-04-18T08:38:54.746Z,99.90
2018-04-18T08:41:21.805Z,99.90
2018-04-18T08:43:49.736Z,99.90
2018-04-18T08:46:16.866Z,99.90
2018-04-18T08:48:43.946Z,99.90
2018-04-18T08:51:11.004Z,99.90
2018-04-18T08:53:38.068Z,99.90
2018-04-18T08:56:05.157Z,99.90
2018-04-18T08:58:32.255Z,99.90
2018-04-18T09:00:59.310Z,99.90
2018-04-18T09:03:26.376Z,99.90
2018-04-18T09:05:54.228Z,99.90
2018-04-18T09:08:21.324Z,99.90
2018-04-18T09:10:48.374Z,99.90
2018-04-18T09:13:15.458Z,99.90
2018-04-18T09:15:42.581Z,99.90
2018-04-18T09:18:09.650Z,99.70
2018-04-18T09:20:36.728Z,99.30
2018-04-18T09:23:03.816Z,99.20
2018-04-18T09:25:30.946Z,99.80
2018-04-18T09:27:58.786Z,99.20
2018-04-18T09:30:25.833Z,99.20
2018-04-18T09:32:52.913Z,97.80
2018-04-18T09:35:20.753Z,98.20
2018-04-18T09:37:47.896Z,98.20
2018-04-18T09:40:14.975Z,96.10
2018-04-18T09:42:42.297Z,96.10
2018-04-18T09:45:09.362Z,95.40
2018-04-18T09:47:36.421Z,95.00
2018-04-18T09:50:04.291Z,93.80
2018-04-18T09:52:32.175Z,93.70
2018-04-18T09:54:59.265Z,93.70
2018-04-18T09:57:26.363Z,92.30
2018-04-18T09:59:54.245Z,91.20
2018-04-18T10:02:27.004Z,91.10
2018-04-18T10:04:54.100Z,91.00
2018-04-18T10:07:21.209Z,89.90
2018-04-18T10:09:49.057Z,88.50
2018-04-18T10:12:16.142Z,88.50
2018-04-18T10:14:43.233Z,87.50
2018-04-18T10:17:10.341Z,83.70
2018-04-18T10:19:37.468Z,78.80
2018-04-18T10:22:05.295Z,76.00
2018-04-18T10:24:32.446Z,76.00
2018-04-18T10:26:59.526Z,76.50
2018-04-18T10:29:26.623Z,75.70
2018-04-18T10:31:53.696Z,74.20
2018-04-18T10:34:20.798Z,66.70
2018-04-18T10:36:48.007Z,59.60
2018-04-18T10:39:15.137Z,54.90
2018-04-18T10:41:42.663Z,50.20
2018-04-18T10:44:10.210Z,46.20
2018-04-18T10:46:37.746Z,40.90
2018-04-18T10:49:05.314Z,38.40
2018-04-18T10:51:33.607Z,36.40
2018-04-18T10:54:01.936Z,34.20
2018-04-18T10:56:29.468Z,34.20
2018-04-18T10:58:56.996Z,33.70
2018-04-18T11:01:25.335Z,32.90
2018-04-18T11:03:52.914Z,32.90
2018-04-18T11:06:20.533Z,33.20
2018-04-18T11:08:48.066Z,31.40
2018-04-18T11:11:16.349Z,29.10
2018-04-18T11:13:43.905Z,29.10
2018-04-18T11:16:11.450Z,29.10
2018-04-18T11:18:39.904Z,29.20
2018-04-18T11:21:07.440Z,29.20
2018-04-18T11:23:35.013Z,28.70
2018-04-18T11:26:02.556Z,27.70
2018-04-18T11:28:30.110Z,25.50
2018-04-18T11:30:57.637Z,24.50
2018-04-18T11:33:26.049Z,24.10
2018-04-18T11:35:53.650Z,24.00
2018-04-18T11:38:21.192Z,23.70
2018-04-18T11:40:48.743Z,23.20
2018-04-18T11:43:16.277Z,23.50
2018-04-18T11:45:43.810Z,23.00
2018-04-18T11:48:12.150Z,23.20
2018-04-18T11:50:39.673Z,23.10
2018-04-18T11:53:07.209Z,23.50
2018-04-18T11:55:35.505Z,23.30
2018-04-18T11:58:03.795Z,23.20
2018-04-18T12:00:31.321Z,23.20
2018-04-18T12:02:58.837Z,22.70
2018-04-18T12:05:26.486Z,23.70
2018-04-18T12:07:54.927Z,22.90
2018-04-18T12:10:23.314Z,22.10
2018-04-18T12:12:51.651Z,22.70
2018-04-18T12:15:19.223Z,22.70
2018-04-18T12:17:46.760Z,23.50
2018-04-18T12:20:14.321Z,22.80
2018-04-18T12:22:41.913Z,23.40
2018-04-18T12:25:09.466Z,23.60
2018-04-18T12:27:37.764Z,25.80
2018-04-18T12:30:06.055Z,26.20
2018-04-18T12:32:34.369Z,26.20
2018-04-18T12:35:02.017Z,26.20
2018-04-18T12:37:29.556Z,25.70
2018-04-18T12:39:57.852Z,25.30
2018-04-18T12:42:25.586Z,25.30
2018-04-18T12:44:53.878Z,25.30
2018-04-18T12:47:21.392Z,25.30
2018-04-18T12:49:49.024Z,25.80
2018-04-18T12:52:16.630Z,25.80
2018-04-18T12:54:44.242Z,26.00
2018-04-18T12:57:11.756Z,26.40
2018-04-18T12:59:40.122Z,26.40
2018-04-18T13:02:07.646Z,26.30
2018-04-18T13:04:35.197Z,25.40
2018-04-18T13:07:02.756Z,25.30
2018-04-18T13:09:30.343Z,26.30
2018-04-18T13:11:57.880Z,27.30
2018-04-18T13:14:25.419Z,28.10
2018-04-18T13:16:52.984Z,27.60
2018-04-18T13:19:20.595Z,27.00
2018-04-18T13:21:48.242Z,26.80
2018-04-18T13:24:15.895Z,26.70
2018-04-18T13:26:43.493Z,26.30
2018-04-18T13:29:11.052Z,26.40
2018-04-18T13:31:38.581Z,27.20
2018-04-18T13:34:06.131Z,27.30
2018-04-18T13:36:33.675Z,27.00
2018-04-18T13:39:01.242Z,27.30
2018-04-18T13:41:28.803Z,26.70
2018-04-18T13:43:56.350Z,25.90
2018-04-18T13:46:23.958Z,24.80
2018-04-18T13:48:51.627Z,25.10
2018-04-18T13:51:19.192Z,25.10
2018-04-18T13:53:47.371Z,25.80
2018-04-18T13:56:14.970Z,26.50
2018-04-18T13:58:42.517Z,27.40
2018-04-18T14:01:10.878Z,25.10
2018-04-18T14:03:38.427Z,25.00
2018-04-18T14:06:06.010Z,25.20
2018-04-18T14:08:33.563Z,24.00
2018-04-18T14:11:01.878Z,23.40
2018-04-18T14:13:29.378Z,22.90
2018-04-18T14:15:56.975Z,23.50
2018-04-18T14:18:24.556Z,23.70
2018-04-18T14:20:52.093Z,24.40
2018-04-18T14:23:19.635Z,25.00
2018-04-18T14:25:47.175Z,25.80
2018-04-18T14:28:14.876Z,26.00
2018-04-18T14:30:43.159Z,25.20
2018-04-18T14:33:11.446Z,24.80
2018-04-18T14:35:39.009Z,24.80
2018-04-18T14:38:06.549Z,25.40
2018-04-18T14:40:34.866Z,25.50
2018-04-18T14:43:02.384Z,25.50
2018-04-18T14:45:30.833Z,26.60
2018-04-18T14:47:58.404Z,26.60
2018-04-18T14:50:25.911Z,26.50
2018-04-18T14:52:53.476Z,25.50
2018-04-18T14:55:21.105Z,26.50
2018-04-18T14:57:48.678Z,27.10
2018-04-18T15:00:17.668Z,27.60
2018-04-18T15:02:48.194Z,27.60
2018-04-18T15:05:16.544Z,27.40
2018-04-18T15:07:44.153Z,27.40
2018-04-18T15:10:11.718Z,27.40
2018-04-18T15:12:39.290Z,27.00
2018-04-18T15:15:06.803Z,27.70
2018-04-18T15:17:34.318Z,28.30
2018-04-18T15:20:01.913Z,28.30
2018-04-18T15:22:29.528Z,29.20
2018-04-18T15:24:57.046Z,29.10
2018-04-18T15:27:24.550Z,29.30
2018-04-18T15:29:52.149Z,29.50
2018-04-18T15:32:19.821Z,29.50
2018-04-18T15:34:47.353Z,29.30
2018-04-18T15:37:15.059Z,29.30
2018-04-18T15:39:42.709Z,29.60
2018-04-18T15:42:10.425Z,30.30
2018-04-18T15:44:38.010Z,29.10
2018-04-18T15:47:06.259Z,29.20
2018-04-18T15:49:33.802Z,29.10
2018-04-18T15:52:01.377Z,29.90
2018-04-18T15:54:28.922Z,29.70
2018-04-18T15:56:56.606Z,29.40
2018-04-18T15:59:24.156Z,29.40
2018-04-18T16:01:51.683Z,30.00
2018-04-18T16:04:20.045Z,31.00
2018-04-18T16:06:47.595Z,31.00
2018-04-18T16:09:15.116Z,31.70
2018-04-18T16:11:42.652Z,31.50
2018-04-18T16:14:10.980Z,31.90
2018-04-18T16:16:38.663Z,31.90
2018-04-18T16:19:06.215Z,31.80
2018-04-18T16:21:33.743Z,31.90
2018-04-18T16:24:01.308Z,32.00
2018-04-18T16:26:28.856Z,32.00
2018-04-18T16:28:56.631Z,32.00
2018-04-18T16:31:24.149Z,32.20
2018-04-18T16:33:52.438Z,33.50
2018-04-18T16:36:20.752Z,34.80
2018-04-18T16:38:48.301Z,34.10
2018-04-18T16:41:16.657Z,34.30
2018-04-18T16:43:44.954Z,35.20
2018-04-18T16:46:12.581Z,34.60
2018-04-18T16:48:40.154Z,34.20
2018-04-18T16:51:07.672Z,34.80
2018-04-18T16:53:35.203Z,35.50
2018-04-18T16:56:02.811Z,35.60
2018-04-18T16:58:31.287Z,36.40
2018-04-18T17:00:58.873Z,36.40
2018-04-18T17:03:27.180Z,36.60
2018-04-18T17:05:54.709Z,36.50
2018-04-18T17:08:22.999Z,37.20
2018-04-18T17:10:50.535Z,37.20
2018-04-18T17:13:18.940Z,37.60
2018-04-18T17:15:46.467Z,37.60
2018-04-18T17:18:14.000Z,37.40
2018-04-18T17:20:42.276Z,37.70
2018-04-18T17:23:10.547Z,38.10
2018-04-18T17:25:38.134Z,38.10
2018-04-18T17:28:05.663Z,38.60
2018-04-18T17:30:33.170Z,39.00
2018-04-18T17:33:00.703Z,39.00
2018-04-18T17:35:28.236Z,39.30
2018-04-18T17:37:55.921Z,39.30
2018-04-18T17:40:23.456Z,40.00
2018-04-18T17:42:50.988Z,39.70
2018-04-18T17:45:19.357Z,40.50
2018-04-18T17:47:47.746Z,41.10
2018-04-18T17:50:16.167Z,41.70
2018-04-18T17:52:43.738Z,41.70
2018-04-18T17:55:11.436Z,42.00
2018-04-18T17:57:39.737Z,42.70
2018-04-18T18:00:08.094Z,42.90
2018-04-18T18:02:36.392Z,42.90
2018-04-18T18:05:04.073Z,42.90
2018-04-18T18:07:31.591Z,43.40
2018-04-18T18:09:59.928Z,44.00
2018-04-18T18:12:27.462Z,44.00
2018-04-18T18:14:55.019Z,44.30
2018-04-18T18:17:22.636Z,44.60
2018-04-18T18:19:50.261Z,44.80
2018-04-18T18:22:17.822Z,45.00
2018-04-18T18:24:45.423Z,45.80
2018-04-18T18:27:12.976Z,45.70
2018-04-18T18:29:40.708Z,46.10
2018-04-18T18:32:08.375Z,46.10
2018-04-18T18:34:36.873Z,46.00
2018-04-18T18:37:04.414Z,46.20
2018-04-18T18:39:31.953Z,46.70
2018-04-18T18:42:00.346Z,46.90
2018-04-18T18:44:27.908Z,47.20
2018-04-18T18:46:55.467Z,47.60
2018-04-18T18:49:23.536Z,47.70
2018-04-18T18:51:51.181Z,47.90
2018-04-18T18:54:18.726Z,48.20
2018-04-18T18:56:46.299Z,48.30
2018-04-18T18:59:14.642Z,49.00
2018-04-18T19:01:42.248Z,49.00
2018-04-18T19:04:09.794Z,49.20
2018-04-18T19:06:38.159Z,49.60
2018-04-18T19:09:06.545Z,50.10
2018-04-18T19:11:34.935Z,50.10
2018-04-18T19:14:03.272Z,50.30
2018-04-18T19:16:30.810Z,50.40
2018-04-18T19:18:58.411Z,50.30
2018-04-18T19:21:26.003Z,50.20
2018-04-18T19:23:54.331Z,50.00
2018-04-18T19:26:21.877Z,50.10
2018-04-18T19:28:49.547Z,50.60
2018-04-18T19:31:17.116Z,50.70
2018-04-18T19:33:46.323Z,51.00
2018-04-18T19:36:13.984Z,51.30
2018-04-18T19:38:42.439Z,51.50
2018-04-18T19:41:10.075Z,51.50
2018-04-18T19:43:37.662Z,52.20
2018-04-18T19:46:05.216Z,52.50
2018-04-18T19:48:32.737Z,53.00
2018-04-18T19:51:01.041Z,53.80
2018-04-18T19:53:28.614Z,53.70
2018-04-18T19:55:56.175Z,53.80
2018-04-18T19:58:23.795Z,54.00
2018-04-18T20:00:51.365Z,54.30
2018-04-18T20:03:18.924Z,54.40
2018-04-18T20:05:47.249Z,55.00
2018-04-18T20:08:14.825Z,55.00
2018-04-18T20:10:42.388Z,55.40
2018-04-18T20:13:10.032Z,55.30
2018-04-18T20:15:37.573Z,55.40
2018-04-18T20:18:05.164Z,55.50
2018-04-18T20:20:32.687Z,55.70
2018-04-18T20:23:00.301Z,55.60
2018-04-18T20:25:28.098Z,55.80
2018-04-18T20:27:55.708Z,56.30
2018-04-18T20:30:23.377Z,56.20
2018-04-18T20:32:50.901Z,55.60
2018-04-18T20:35:19.458Z,56.20
2018-04-18T20:37:47.018Z,56.40
2018-04-18T20:40:15.339Z,57.30
2018-04-18T20:42:54.612Z,57.20
2018-04-18T20:45:22.240Z,58.30
2018-04-18T20:47:49.920Z,58.70
2018-04-18T20:50:17.774Z,58.90
2018-04-18T20:52:45.365Z,59.20
2018-04-18T20:55:13.680Z,58.60
2018-04-18T20:57:41.443Z,58.70
2018-04-18T21:00:09.755Z,59.50
2018-04-18T21:02:37.377Z,60.00
2018-04-18T21:05:05.397Z,61.00
2018-04-18T21:07:33.031Z,61.80
2018-04-18T21:10:00.598Z,62.60
2018-04-18T21:12:28.227Z,64.20
2018-04-18T21:14:56.529Z,65.40
2018-04-18T21:17:24.098Z,65.40
2018-04-18T21:19:52.442Z,66.60
2018-04-18T21:22:20.817Z,66.30
2018-04-18T21:24:48.441Z,66.20
2018-04-18T21:27:16.107Z,67.00
2018-04-18T21:29:43.647Z,68.40
2018-04-18T21:32:11.256Z,70.60
2018-04-18T21:34:39.684Z,71.20
2018-04-18T21:37:07.301Z,72.10
2018-04-18T21:39:35.728Z,74.60
2018-04-18T21:42:03.319Z,74.40
2018-04-18T21:44:30.880Z,74.70
2018-04-18T21:46:58.398Z,75.80
2018-04-18T21:49:25.946Z,76.50
2018-04-18T21:51:53.485Z,76.50
2018-04-18T21:54:21.817Z,79.10
2018-04-18T21:56:49.342Z,79.10
2018-04-18T21:59:16.881Z,81.50
2018-04-18T22:01:45.192Z,83.00
2018-04-18T22:04:12.719Z,83.00
2018-04-18T22:06:41.058Z,82.80
2018-04-18T22:09:08.597Z,82.80
2018-04-18T22:11:36.206Z,84.20
2018-04-18T22:14:03.771Z,84.80
2018-04-18T22:16:31.293Z,86.20
2018-04-18T22:19:00.638Z,86.70
2018-04-18T22:21:29.979Z,90.00
2018-04-18T22:23:57.642Z,90.00
2018-04-18T22:26:26.306Z,90.50
2018-04-18T22:28:53.904Z,91.30
2018-04-18T22:31:21.430Z,92.40
2018-04-18T22:33:51.412Z,93.00
2018-04-18T22:36:20.556Z,93.70
2018-04-18T22:38:48.174Z,94.40
2018-04-18T22:41:18.505Z,95.50
2018-04-18T22:43:46.179Z,95.50
2018-04-18T22:46:13.717Z,96.30
2018-04-18T22:48:41.335Z,97.00
2018-04-18T22:51:08.978Z,97.90
2018-04-18T22:53:37.738Z,98.90
2018-04-18T22:56:07.560Z,99.90
2018-04-18T22:58:35.117Z,99.90
2018-04-18T23:01:03.470Z,99.90
2018-04-18T23:03:31.014Z,99.90
2018-04-18T23:05:58.641Z,99.90
2018-04-18T23:08:26.255Z,99.90
2018-04-18T23:10:53.806Z,99.90
2018-04-18T23:13:21.360Z,99.90
2018-04-18T23:15:48.922Z,99.90
2018-04-18T23:18:16.458Z,99.90
2018-04-18T23:20:44.145Z,99.90
2018-04-18T23:23:11.712Z,99.90
2018-04-18T23:25:39.330Z,99.90
2018-04-18T23:28:06.888Z,99.90
2018-04-18T23:30:34.426Z,99.90
2018-04-18T23:33:02.728Z,99.90
2018-04-18T23:35:30.273Z,99.90
2018-04-18T23:37:58.689Z,99.90
2018-04-18T23:40:26.223Z,99.90
2018-04-18T23:42:53.818Z,99.90
2018-04-18T23:45:21.338Z,99.90
2018-04-18T23:47:48.874Z,99.90
2018-04-18T23:50:16.422Z,99.90
2018-04-18T23:52:43.981Z,99.90
2018-04-18T23:55:11.553Z,99.90
2018-04-18T23:57:39.100Z,99.90
